Terminal Aerodrome Forecast
Issued by NWS Grand Forks, ND

Home | Current Version | Previous Version | Text Only | Print | Product List | Glossary Off
Versions: 1 2 3 4 5 6 7 8 9 10 11 12 13 14

000
FTUS43 KFGF 281140
TAFGFK
TAF
KGFK 281140Z 2812/2912 18007KT P6SM SCT080 BKN200
     FM281800 20012G20KT P6SM BKN250
     FM282100 20013G25KT P6SM VCTS SCT050CB BKN120
     FM290100 22006KT P6SM SCT250=

USA.gov is the U.S. government's official web portal to all federal, state and local government web resources and services.